createdAt,value
2023-04-10T00:01:47.486Z,78.30
2023-04-10T00:04:45.844Z,77.90
2023-04-10T00:07:43.902Z,77.50
2023-04-10T00:10:42.127Z,78.20
2023-04-10T00:13:40.063Z,79.00
2023-04-10T00:16:38.119Z,77.50
2023-04-10T00:19:36.114Z,78.00
2023-04-10T00:22:34.054Z,78.70
2023-04-10T00:25:32.126Z,78.60
2023-04-10T00:28:30.005Z,78.90
2023-04-10T00:31:27.904Z,79.50
2023-04-10T00:34:26.434Z,78.90
2023-04-10T00:37:24.311Z,78.80
2023-04-10T00:40:22.694Z,78.80
2023-04-10T00:43:20.801Z,78.90
2023-04-10T00:46:18.803Z,79.20
2023-04-10T00:49:18.891Z,78.60
2023-04-10T00:52:17.219Z,78.90
2023-04-10T00:55:16.581Z,79.30
2023-04-10T00:58:15.167Z,79.40
2023-04-10T01:01:13.776Z,79.20
2023-04-10T01:04:12.322Z,78.40
2023-04-10T01:07:33.293Z,78.50
2023-04-10T01:10:44.076Z,78.40
2023-04-10T01:14:00.533Z,78.50
2023-04-10T01:17:04.375Z,77.40
2023-04-10T01:20:05.261Z,77.10
2023-04-10T01:23:17.375Z,76.70
2023-04-10T01:26:20.275Z,75.70
2023-04-10T01:29:22.450Z,75.60
2023-04-10T01:32:23.598Z,76.10
2023-04-10T01:35:22.446Z,71.50
2023-04-10T01:38:22.064Z,71.00
2023-04-10T01:41:20.657Z,75.20
2023-04-10T01:44:20.313Z,75.20
2023-04-10T01:47:19.145Z,75.00
2023-04-10T01:50:18.329Z,74.80
2023-04-10T01:53:17.512Z,72.80
2023-04-10T01:56:16.792Z,70.60
2023-04-10T01:59:14.645Z,71.20
2023-04-10T02:02:12.932Z,71.20
2023-04-10T02:05:14.412Z,70.00
2023-04-10T02:08:33.773Z,71.30
2023-04-10T02:11:39.412Z,69.70
2023-04-10T02:14:46.393Z,71.60
2023-04-10T02:17:44.799Z,71.40
2023-04-10T02:20:42.702Z,71.10
2023-04-10T02:23:40.984Z,70.70
2023-04-10T02:26:52.924Z,70.40
2023-04-10T02:29:52.164Z,70.20
2023-04-10T02:32:50.057Z,69.60
2023-04-10T02:35:48.225Z,68.90
2023-04-10T02:38:46.246Z,69.20
2023-04-10T02:41:44.106Z,68.30
2023-04-10T02:44:42.022Z,67.80
2023-04-10T02:47:40.191Z,67.00
2023-04-10T02:50:38.167Z,67.60
2023-04-10T02:53:36.259Z,68.30
2023-04-10T02:56:36.953Z,68.30
2023-04-10T02:59:34.859Z,67.40
2023-04-10T03:02:33.174Z,66.10
2023-04-10T03:05:31.805Z,65.60
2023-04-10T03:08:30.964Z,65.90
2023-04-10T03:11:28.825Z,64.70
2023-04-10T03:14:27.542Z,64.20
2023-04-10T03:17:25.542Z,63.80
2023-04-10T03:20:23.426Z,64.30
2023-04-10T03:23:21.429Z,63.70
2023-04-10T03:26:19.398Z,63.30
2023-04-10T03:29:19.705Z,63.20
2023-04-10T03:32:17.543Z,63.30
2023-04-10T03:35:15.431Z,62.10
2023-04-10T03:38:13.129Z,62.00
2023-04-10T03:41:11.049Z,61.60
2023-04-10T03:44:08.878Z,61.00
2023-04-10T03:47:06.819Z,60.90
2023-04-10T03:50:04.977Z,61.80
2023-04-10T03:53:03.063Z,61.00
2023-04-10T03:56:00.905Z,61.90
2023-04-10T03:58:58.880Z,61.40
2023-04-10T04:01:56.781Z,60.00
2023-04-10T04:04:54.811Z,60.10
2023-04-10T04:07:52.597Z,58.70
2023-04-10T04:10:50.785Z,58.90
2023-04-10T04:13:48.688Z,58.50
2023-04-10T04:16:46.941Z,58.40
2023-04-10T04:19:45.042Z,58.40
2023-04-10T04:22:43.165Z,58.70
2023-04-10T04:25:40.861Z,60.60
2023-04-10T04:28:39.051Z,60.70
2023-04-10T04:31:36.899Z,62.00
2023-04-10T04:34:34.885Z,63.60
2023-04-10T04:37:32.578Z,64.70
2023-04-10T04:40:30.460Z,65.00
2023-04-10T04:43:28.384Z,65.30
2023-04-10T04:46:26.395Z,66.10
2023-04-10T04:49:24.252Z,65.90
2023-04-10T04:52:22.057Z,66.50
2023-04-10T04:55:19.938Z,68.60
2023-04-10T04:58:17.819Z,68.90
2023-04-10T05:01:15.939Z,69.70
2023-04-10T05:04:13.949Z,70.90
2023-04-10T05:07:12.134Z,71.00
2023-04-10T05:10:10.451Z,71.20
2023-04-10T05:13:08.505Z,71.00
2023-04-10T05:16:06.827Z,71.60
2023-04-10T05:19:04.946Z,72.00
2023-04-10T05:22:03.040Z,72.00
2023-04-10T05:25:01.103Z,72.20
2023-04-10T05:27:58.956Z,71.50
2023-04-10T05:30:56.894Z,72.10
2023-04-10T05:33:54.649Z,72.00
2023-04-10T05:36:53.310Z,71.60
2023-04-10T05:39:51.049Z,71.50
2023-04-10T05:42:48.870Z,71.50
2023-04-10T05:45:46.556Z,71.10
2023-04-10T05:48:44.639Z,71.40
2023-04-10T05:51:42.366Z,71.30
2023-04-10T05:54:40.459Z,70.80
2023-04-10T05:57:39.929Z,70.90
2023-04-10T06:00:37.904Z,71.50
2023-04-10T06:03:36.124Z,71.10
2023-04-10T06:06:34.479Z,70.50
2023-04-10T06:09:32.299Z,70.10
2023-04-10T06:12:30.194Z,70.30
2023-04-10T06:15:28.260Z,70.10
2023-04-10T06:18:26.225Z,70.10
2023-04-10T06:21:24.067Z,71.10
2023-04-10T06:24:21.804Z,70.30
2023-04-10T06:27:19.697Z,71.10
2023-04-10T06:30:17.407Z,70.20
2023-04-10T06:33:15.356Z,71.00
2023-04-10T06:36:13.288Z,71.30
2023-04-10T06:39:11.045Z,71.10
2023-04-10T06:42:08.999Z,71.70
2023-04-10T06:45:07.372Z,71.10
2023-04-10T06:48:06.303Z,70.40
2023-04-10T06:51:04.507Z,70.40
2023-04-10T06:54:02.641Z,70.30
2023-04-10T06:57:01.315Z,70.00
2023-04-10T06:59:59.289Z,70.50
2023-04-10T07:02:57.274Z,70.80
2023-04-10T07:05:55.226Z,70.50
2023-04-10T07:08:53.334Z,70.50
2023-04-10T07:11:52.734Z,71.10
2023-04-10T07:14:50.719Z,70.90
2023-04-10T07:17:49.417Z,70.90
2023-04-10T07:20:47.693Z,70.10
2023-04-10T07:23:45.626Z,69.90
2023-04-10T07:26:43.924Z,69.50
2023-04-10T07:29:41.990Z,69.30
2023-04-10T07:32:40.949Z,68.90
2023-04-10T07:35:39.180Z,69.50
2023-04-10T07:38:38.370Z,68.10
2023-04-10T07:41:36.433Z,67.80
2023-04-10T07:44:34.353Z,67.60
2023-04-10T07:47:32.264Z,67.90
2023-04-10T07:50:31.331Z,67.90
2023-04-10T07:53:29.439Z,68.30
2023-04-10T07:56:27.264Z,67.80
2023-04-10T07:59:25.207Z,66.80
2023-04-10T08:02:26.205Z,67.10
2023-04-10T08:05:25.099Z,66.50
2023-04-10T08:08:23.110Z,67.10
2023-04-10T08:11:29.097Z,66.20
2023-04-10T08:14:27.205Z,66.70
2023-04-10T08:17:25.161Z,65.70
2023-04-10T08:20:22.999Z,64.70
2023-04-10T08:23:21.855Z,63.80
2023-04-10T08:26:20.323Z,63.20
2023-04-10T08:29:18.602Z,64.10
2023-04-10T08:32:16.723Z,62.80
2023-04-10T08:35:14.678Z,62.90
2023-04-10T08:38:14.519Z,61.20
2023-04-10T08:41:17.001Z,61.30
2023-04-10T08:44:15.009Z,60.20
2023-04-10T08:47:14.204Z,60.40
2023-04-10T08:50:16.726Z,60.70
2023-04-10T08:53:16.524Z,60.00
2023-04-10T08:56:16.942Z,60.50
2023-04-10T08:59:15.013Z,60.00
2023-04-10T09:02:13.311Z,59.50
2023-04-10T09:05:13.766Z,57.50
2023-04-10T09:08:12.792Z,57.30
2023-04-10T09:11:11.360Z,57.50
2023-04-10T09:14:22.738Z,59.00
2023-04-10T09:17:22.261Z,59.30
2023-04-10T09:20:25.172Z,58.00
2023-04-10T09:23:22.940Z,57.60
2023-04-10T09:26:26.636Z,56.40
2023-04-10T09:29:25.026Z,55.70
2023-04-10T09:32:52.261Z,54.20
2023-04-10T09:35:51.146Z,55.40
2023-04-10T09:38:52.803Z,55.40
2023-04-10T09:41:52.932Z,54.30
2023-04-10T09:44:56.931Z,54.30
2023-04-10T09:48:04.781Z,54.20
2023-04-10T09:51:02.967Z,54.50
2023-04-10T09:54:01.973Z,53.50
2023-04-10T09:57:00.158Z,52.50
2023-04-10T09:59:59.731Z,52.80
2023-04-10T10:03:00.450Z,53.40
2023-04-10T10:05:58.534Z,54.20
2023-04-10T10:08:57.010Z,54.40
2023-04-10T10:11:56.322Z,54.10
2023-04-10T10:15:22.556Z,55.60
2023-04-10T10:18:52.508Z,55.60
2023-04-10T10:21:52.756Z,55.00
2023-04-10T10:24:57.167Z,55.70
2023-04-10T10:27:56.253Z,55.80
2023-04-10T10:30:55.338Z,56.90
2023-04-10T10:33:54.828Z,56.50
2023-04-10T10:36:52.560Z,57.80
2023-04-10T10:40:05.246Z,56.80
2023-04-10T10:43:24.558Z,57.30
2023-04-10T10:46:48.521Z,57.60
2023-04-10T10:49:59.458Z,58.20
2023-04-10T10:52:58.309Z,59.60
2023-04-10T10:55:56.393Z,60.10
2023-04-10T10:58:56.557Z,60.70
2023-04-10T11:02:18.716Z,61.70
2023-04-10T11:05:51.778Z,63.70
2023-04-10T11:08:53.947Z,64.50
2023-04-10T11:12:02.292Z,65.30
2023-04-10T11:15:06.847Z,63.50
2023-04-10T11:18:04.721Z,64.10
2023-04-10T11:21:13.449Z,64.10
2023-04-10T11:24:11.677Z,62.40
2023-04-10T11:27:09.446Z,62.00
2023-04-10T11:30:28.602Z,61.70
2023-04-10T11:33:26.407Z,63.00
2023-04-10T11:36:25.065Z,62.90
2023-04-10T11:39:23.096Z,63.10
2023-04-10T11:42:22.330Z,63.10
2023-04-10T11:45:29.702Z,64.50
2023-04-10T11:48:29.484Z,64.80
2023-04-10T11:51:30.621Z,65.20
2023-04-10T11:54:29.930Z,64.50
2023-04-10T11:57:35.867Z,64.60
2023-04-10T12:00:33.957Z,64.90
2023-04-10T12:03:40.058Z,66.40
2023-04-10T12:06:38.138Z,64.80
2023-04-10T12:09:36.191Z,64.60
2023-04-10T12:12:38.306Z,64.40
2023-04-10T12:15:36.288Z,65.30
2023-04-10T12:18:34.579Z,65.20
2023-04-10T12:21:32.653Z,66.20
2023-04-10T12:24:46.662Z,67.10
2023-04-10T12:27:51.046Z,68.10
2023-04-10T12:30:55.711Z,68.10
2023-04-10T12:33:58.054Z,69.10
2023-04-10T12:36:56.180Z,70.10
2023-04-10T12:39:54.368Z,70.70
2023-04-10T12:42:52.960Z,70.60
2023-04-10T12:45:50.782Z,70.80
2023-04-10T12:48:48.822Z,70.40
2023-04-10T12:51:53.885Z,70.40
2023-04-10T12:54:51.922Z,71.20
2023-04-10T12:57:52.360Z,72.30
2023-04-10T13:00:50.380Z,72.80
2023-04-10T13:03:49.587Z,72.90
2023-04-10T13:06:48.971Z,73.30
2023-04-10T13:09:47.282Z,73.40
2023-04-10T13:12:45.252Z,74.40
2023-04-10T13:15:43.528Z,76.10
2023-04-10T13:18:41.228Z,79.10
2023-04-10T13:21:39.066Z,82.00
2023-04-10T13:24:37.598Z,83.50
2023-04-10T13:27:35.517Z,84.30
2023-04-10T13:30:33.666Z,85.60
2023-04-10T13:33:31.885Z,86.30
2023-04-10T13:36:29.797Z,87.40
2023-04-10T13:39:31.729Z,87.80
2023-04-10T13:42:29.633Z,88.70
2023-04-10T13:45:27.719Z,90.00
2023-04-10T13:48:33.662Z,90.60
2023-04-10T13:51:37.604Z,91.30
2023-04-10T13:54:35.511Z,92.20
2023-04-10T13:57:33.394Z,92.90
2023-04-10T14:00:31.297Z,93.30
2023-04-10T14:03:29.553Z,91.60
2023-04-10T14:06:27.881Z,94.50
2023-04-10T14:09:25.959Z,94.60
2023-04-10T14:12:24.602Z,94.10
2023-04-10T14:15:23.328Z,94.60
2023-04-10T14:18:21.186Z,94.70
2023-04-10T14:21:20.671Z,94.20
2023-04-10T14:24:18.797Z,94.50
2023-04-10T14:27:17.596Z,95.00
2023-04-10T14:30:15.488Z,95.10
2023-04-10T14:33:13.999Z,94.80
2023-04-10T14:36:12.077Z,94.50
2023-04-10T14:39:10.041Z,94.50
2023-04-10T14:42:08.000Z,95.00
2023-04-10T14:45:06.862Z,94.70
2023-04-10T14:48:05.080Z,94.90
2023-04-10T14:51:03.195Z,94.50
2023-04-10T14:54:01.185Z,94.10
2023-04-10T14:56:59.138Z,94.20
2023-04-10T14:59:57.027Z,94.20
2023-04-10T15:02:55.006Z,94.10
2023-04-10T15:06:00.587Z,93.40
2023-04-10T15:08:58.478Z,92.80
2023-04-10T15:11:57.527Z,92.30
2023-04-10T15:14:55.308Z,92.20
2023-04-10T15:17:53.435Z,92.60
2023-04-10T15:20:51.300Z,92.10
2023-04-10T15:23:49.136Z,92.40
2023-04-10T15:26:47.646Z,92.70
2023-04-10T15:29:45.324Z,92.40
2023-04-10T15:32:43.216Z,92.10
2023-04-10T15:35:41.121Z,91.80
2023-04-10T15:38:40.121Z,91.80
2023-04-10T15:41:38.834Z,91.80
2023-04-10T15:44:36.909Z,91.30
2023-04-10T15:47:34.672Z,90.90
2023-04-10T15:50:32.748Z,91.00
2023-04-10T15:53:30.723Z,91.20
2023-04-10T15:56:28.669Z,91.70
2023-04-10T15:59:26.386Z,91.80
2023-04-10T16:02:24.505Z,92.20
2023-04-10T16:05:22.583Z,91.60
2023-04-10T16:08:20.649Z,91.60
2023-04-10T16:11:18.672Z,91.20
2023-04-10T16:14:16.773Z,91.00
2023-04-10T16:17:14.718Z,91.00
2023-04-10T16:20:13.254Z,91.60
2023-04-10T16:23:11.425Z,91.60
2023-04-10T16:26:09.351Z,91.70
2023-04-10T16:29:07.446Z,91.90
2023-04-10T16:32:05.332Z,91.60
2023-04-10T16:35:03.413Z,91.70
2023-04-10T16:38:01.287Z,92.40
2023-04-10T16:41:02.144Z,92.80
2023-04-10T16:44:00.273Z,94.40
2023-04-10T16:46:58.811Z,95.90
2023-04-10T16:49:57.149Z,97.00
2023-04-10T16:52:55.247Z,97.80
2023-04-10T16:56:01.924Z,98.10
2023-04-10T16:59:02.526Z,97.50
2023-04-10T17:02:00.970Z,97.30
2023-04-10T17:04:59.101Z,97.70
2023-04-10T17:07:56.773Z,97.80
2023-04-10T17:10:55.098Z,98.30
2023-04-10T17:13:52.919Z,98.10
2023-04-10T17:16:50.889Z,98.30
2023-04-10T17:19:49.032Z,99.00
2023-04-10T17:22:47.723Z,98.40
2023-04-10T17:25:45.627Z,98.10
2023-04-10T17:28:46.964Z,97.40
2023-04-10T17:31:44.907Z,96.80
2023-04-10T17:34:43.238Z,96.60
2023-04-10T17:37:41.328Z,96.40
2023-04-10T17:40:41.336Z,95.60
2023-04-10T17:43:39.460Z,95.20
2023-04-10T17:46:37.401Z,94.90
2023-04-10T17:49:35.668Z,94.60
2023-04-10T17:52:33.594Z,94.40
2023-04-10T17:55:31.630Z,94.40
2023-04-10T17:58:29.535Z,94.50
2023-04-10T18:01:30.339Z,93.60
2023-04-10T18:04:28.285Z,93.40
2023-04-10T18:07:26.052Z,93.50
2023-04-10T18:10:24.146Z,93.20
2023-04-10T18:13:21.901Z,93.40
2023-04-10T18:16:20.055Z,92.70
2023-04-10T18:19:18.284Z,93.00
2023-04-10T18:22:16.149Z,92.80
2023-04-10T18:25:14.501Z,92.80
2023-04-10T18:28:15.908Z,92.80
2023-04-10T18:31:19.525Z,93.20
2023-04-10T18:34:17.527Z,93.20
2023-04-10T18:37:15.306Z,92.80
2023-04-10T18:40:16.339Z,92.80
2023-04-10T18:43:14.801Z,92.90
2023-04-10T18:46:13.113Z,93.00
2023-04-10T18:49:11.833Z,93.00
2023-04-10T18:52:09.889Z,93.00
2023-04-10T18:55:08.049Z,92.90
2023-04-10T18:58:05.887Z,92.70
2023-04-10T19:01:03.945Z,92.90
2023-04-10T19:04:02.107Z,93.10
2023-04-10T19:07:00.467Z,93.00
2023-04-10T19:09:58.295Z,92.50
2023-04-10T19:12:57.345Z,91.90
2023-04-10T19:15:55.727Z,92.20
2023-04-10T19:18:56.846Z,92.50
2023-04-10T19:21:55.014Z,92.80
2023-04-10T19:24:52.914Z,92.70
2023-04-10T19:27:51.026Z,92.10
2023-04-10T19:30:48.813Z,92.30
2023-04-10T19:33:46.688Z,91.20
2023-04-10T19:36:44.403Z,91.30
2023-04-10T19:39:42.297Z,91.10
2023-04-10T19:42:40.105Z,90.90
2023-04-10T19:45:39.130Z,90.40
2023-04-10T19:48:37.070Z,88.60
2023-04-10T19:51:34.995Z,88.70
2023-04-10T19:54:32.954Z,89.80
2023-04-10T19:57:30.967Z,90.00
2023-04-10T20:00:28.935Z,90.10
2023-04-10T20:03:28.420Z,88.60
2023-04-10T20:06:27.546Z,89.40
2023-04-10T20:09:25.470Z,90.50
2023-04-10T20:12:23.326Z,89.50
2023-04-10T20:15:22.733Z,90.40
2023-04-10T20:18:20.484Z,90.70
2023-04-10T20:21:19.285Z,91.80
2023-04-10T20:24:16.975Z,93.00
2023-04-10T20:27:16.180Z,93.10
2023-04-10T20:30:14.486Z,93.40
2023-04-10T20:33:12.565Z,93.70
2023-04-10T20:36:10.709Z,93.70
2023-04-10T20:39:08.495Z,94.10
2023-04-10T20:42:07.415Z,94.30
2023-04-10T20:45:05.910Z,91.00
2023-04-10T20:48:03.848Z,93.00
2023-04-10T20:51:02.458Z,93.30
2023-04-10T20:54:00.464Z,93.60
2023-04-10T20:57:00.697Z,93.80
2023-04-10T20:59:58.508Z,94.00
2023-04-10T21:02:56.491Z,93.80
2023-04-10T21:05:54.315Z,94.10
2023-04-10T21:08:53.143Z,93.90
2023-04-10T21:11:51.165Z,93.50
2023-04-10T21:14:49.007Z,93.40
2023-04-10T21:17:46.856Z,93.20
2023-04-10T21:20:45.492Z,93.00
2023-04-10T21:23:43.344Z,93.00
2023-04-10T21:26:41.064Z,92.70
2023-04-10T21:29:39.054Z,92.60
2023-04-10T21:32:37.112Z,92.40
2023-04-10T21:35:35.055Z,92.10
2023-04-10T21:38:32.880Z,92.60
2023-04-10T21:41:31.074Z,92.70
2023-04-10T21:44:28.802Z,93.20
2023-04-10T21:47:26.640Z,93.10
2023-04-10T21:50:26.037Z,93.20
2023-04-10T21:53:23.896Z,93.40
2023-04-10T21:56:21.713Z,92.70
2023-04-10T21:59:19.597Z,93.00
2023-04-10T22:02:17.418Z,93.20
2023-04-10T22:05:15.642Z,91.80
2023-04-10T22:08:14.509Z,92.00
2023-04-10T22:11:12.614Z,92.90
2023-04-10T22:14:16.924Z,93.40
2023-04-10T22:17:15.379Z,93.30
2023-04-10T22:20:13.299Z,93.10
2023-04-10T22:23:11.152Z,93.30
2023-04-10T22:26:08.929Z,93.70
2023-04-10T22:29:06.905Z,93.40
2023-04-10T22:32:04.655Z,93.70
2023-04-10T22:35:02.637Z,93.20
2023-04-10T22:38:00.367Z,93.50
2023-04-10T22:40:59.212Z,93.40
2023-04-10T22:43:57.155Z,93.00
2023-04-10T22:46:55.154Z,93.30
2023-04-10T22:49:53.429Z,93.00
2023-04-10T22:52:51.478Z,92.90
2023-04-10T22:55:49.232Z,92.70
2023-04-10T22:58:47.067Z,92.60
2023-04-10T23:01:45.321Z,92.80
2023-04-10T23:04:43.362Z,92.80
2023-04-10T23:07:41.262Z,92.80
2023-04-10T23:10:39.074Z,92.80
2023-04-10T23:13:37.055Z,92.40
2023-04-10T23:16:35.114Z,92.70
2023-04-10T23:19:32.980Z,92.60
2023-04-10T23:22:31.721Z,93.00
2023-04-10T23:25:29.597Z,93.00
2023-04-10T23:28:28.206Z,92.70
2023-04-10T23:31:26.481Z,92.50
2023-04-10T23:34:24.281Z,93.00
2023-04-10T23:37:22.200Z,93.20
2023-04-10T23:40:21.733Z,92.70
2023-04-10T23:43:19.736Z,93.10
2023-04-10T23:46:17.678Z,93.00
2023-04-10T23:49:15.509Z,92.90
2023-04-10T23:52:13.222Z,93.10
2023-04-10T23:55:11.391Z,93.60
2023-04-10T23:58:09.152Z,93.90
